sensor_id;sensor_type;location;lat;lon;timestamp;P1;durP1;ratioP1;P2;durP2;ratioP2
35907;SDS011;22003;50.320;8.054;2023-04-21T04:02:41;62.15;;;28.15;;
35907;SDS011;22003;50.320;8.054;2023-04-21T04:05:06;62.35;;;27.10;;
35907;SDS011;22003;50.320;8.054;2023-04-21T04:07:32;52.20;;;23.92;;
35907;SDS011;22003;50.320;8.054;2023-04-21T04:09:58;59.97;;;26.83;;
35907;SDS011;22003;50.320;8.054;2023-04-21T04:12:23;67.00;;;26.92;;
35907;SDS011;22003;50.320;8.054;2023-04-21T04:14:48;60.42;;;26.25;;
35907;SDS011;22003;50.320;8.054;2023-04-21T04:17:13;55.15;;;25.15;;
35907;SDS011;22003;50.320;8.054;2023-04-21T04:19:39;62.67;;;25.80;;
35907;SDS011;22003;50.320;8.054;2023-04-21T04:22:04;64.07;;;26.48;;
35907;SDS011;22003;50.320;8.054;2023-04-21T04:24:31;70.57;;;23.50;;
35907;SDS011;22003;50.320;8.054;2023-04-21T04:26:57;57.67;;;24.42;;
35907;SDS011;22003;50.320;8.054;2023-04-21T04:29:24;64.88;;;23.08;;
35907;SDS011;22003;50.320;8.054;2023-04-21T04:31:49;56.05;;;22.17;;
35907;SDS011;22003;50.320;8.054;2023-04-21T04:34:15;65.32;;;22.73;;
35907;SDS011;22003;50.320;8.054;2023-04-21T04:36:41;56.33;;;22.65;;
35907;SDS011;22003;50.320;8.054;2023-04-21T04:39:07;58.92;;;23.67;;
35907;SDS011;22003;50.320;8.054;2023-04-21T04:41:34;76.22;;;25.80;;
35907;SDS011;22003;50.320;8.054;2023-04-21T04:44:00;55.53;;;22.85;;
35907;SDS011;22003;50.320;8.054;2023-04-21T04:46:25;55.30;;;21.95;;
35907;SDS011;22003;50.320;8.054;2023-04-21T04:48:52;59.00;;;21.63;;
35907;SDS011;22003;50.320;8.054;2023-04-21T04:51:17;52.80;;;21.90;;
35907;SDS011;22003;50.320;8.054;2023-04-21T04:53:42;72.80;;;21.83;;
35907;SDS011;22003;50.320;8.054;2023-04-21T04:56:08;63.50;;;22.05;;
35907;SDS011;22003;50.320;8.054;2023-04-21T04:58:33;61.28;;;21.88;;
35907;SDS011;22003;50.320;8.054;2023-04-21T05:00:58;65.38;;;21.60;;
35907;SDS011;22003;50.320;8.054;2023-04-21T05:03:23;58.75;;;21.77;;
35907;SDS011;22003;50.320;8.054;2023-04-21T05:05:49;59.55;;;21.52;;
35907;SDS011;22003;50.320;8.054;2023-04-21T05:08:14;51.17;;;21.70;;
35907;SDS011;22003;50.320;8.054;2023-04-21T05:10:39;65.10;;;24.10;;
35907;SDS011;22003;50.320;8.054;2023-04-21T05:13:05;59.42;;;20.92;;
35907;SDS011;22003;50.320;8.054;2023-04-21T05:15:30;77.45;;;23.58;;
35907;SDS011;22003;50.320;8.054;2023-04-21T05:17:56;50.83;;;20.27;;
35907;SDS011;22003;50.320;8.054;2023-04-21T05:20:21;68.13;;;20.48;;
35907;SDS011;22003;50.320;8.054;2023-04-21T05:22:46;50.47;;;21.00;;
35907;SDS011;22003;50.320;8.054;2023-04-21T05:25:12;52.53;;;20.55;;
35907;SDS011;22003;50.320;8.054;2023-04-21T05:27:41;106.05;;;21.52;;
35907;SDS011;22003;50.320;8.054;2023-04-21T05:30:07;66.80;;;20.77;;
35907;SDS011;22003;50.320;8.054;2023-04-21T05:32:33;64.35;;;19.52;;
35907;SDS011;22003;50.320;8.054;2023-04-21T05:34:58;83.72;;;37.15;;
35907;SDS011;22003;50.320;8.054;2023-04-21T05:37:24;45.35;;;19.20;;
35907;SDS011;22003;50.320;8.054;2023-04-21T05:39:50;54.70;;;20.17;;
35907;SDS011;22003;50.320;8.054;2023-04-21T05:42:15;55.97;;;20.07;;
35907;SDS011;22003;50.320;8.054;2023-04-21T05:44:42;46.35;;;18.05;;
35907;SDS011;22003;50.320;8.054;2023-04-21T05:47:07;57.70;;;20.02;;
35907;SDS011;22003;50.320;8.054;2023-04-21T05:49:33;48.90;;;16.73;;
35907;SDS011;22003;50.320;8.054;2023-04-21T05:51:58;66.20;;;17.55;;
35907;SDS011;22003;50.320;8.054;2023-04-21T05:54:23;55.03;;;18.60;;
35907;SDS011;22003;50.320;8.054;2023-04-21T05:56:49;87.43;;;19.30;;
35907;SDS011;22003;50.320;8.054;2023-04-21T05:59:14;92.43;;;20.60;;
35907;SDS011;22003;50.320;8.054;2023-04-21T06:01:40;47.90;;;18.65;;
35907;SDS011;22003;50.320;8.054;2023-04-21T06:04:05;57.03;;;20.20;;
35907;SDS011;22003;50.320;8.054;2023-04-21T06:06:30;64.78;;;19.45;;
35907;SDS011;22003;50.320;8.054;2023-04-21T06:08:56;83.40;;;20.02;;
35907;SDS011;22003;50.320;8.054;2023-04-21T06:11:21;64.45;;;18.08;;
35907;SDS011;22003;50.320;8.054;2023-04-21T06:13:47;74.80;;;18.77;;
35907;SDS011;22003;50.320;8.054;2023-04-21T06:16:13;63.13;;;19.77;;
35907;SDS011;22003;50.320;8.054;2023-04-21T06:18:38;68.15;;;19.40;;
35907;SDS011;22003;50.320;8.054;2023-04-21T06:21:03;89.45;;;19.45;;
35907;SDS011;22003;50.320;8.054;2023-04-21T06:23:29;70.00;;;18.67;;
35907;SDS011;22003;50.320;8.054;2023-04-21T06:26:04;55.53;;;17.52;;
35907;SDS011;22003;50.320;8.054;2023-04-21T06:28:31;49.38;;;16.83;;
35907;SDS011;22003;50.320;8.054;2023-04-21T06:30:57;75.93;;;19.65;;
35907;SDS011;22003;50.320;8.054;2023-04-21T06:33:23;99.15;;;29.77;;
35907;SDS011;22003;50.320;8.054;2023-04-21T06:35:49;65.82;;;19.70;;
35907;SDS011;22003;50.320;8.054;2023-04-21T06:38:14;67.28;;;18.90;;
35907;SDS011;22003;50.320;8.054;2023-04-21T06:40:39;71.82;;;18.80;;
35907;SDS011;22003;50.320;8.054;2023-04-21T06:43:05;57.13;;;18.05;;
35907;SDS011;22003;50.320;8.054;2023-04-21T06:45:30;57.45;;;18.42;;
35907;SDS011;22003;50.320;8.054;2023-04-21T06:47:56;55.92;;;18.63;;
35907;SDS011;22003;50.320;8.054;2023-04-21T06:50:21;40.03;;;18.08;;
35907;SDS011;22003;50.320;8.054;2023-04-21T06:52:46;57.28;;;19.23;;
35907;SDS011;22003;50.320;8.054;2023-04-21T06:55:11;56.83;;;20.08;;
35907;SDS011;22003;50.320;8.054;2023-04-21T06:57:37;46.58;;;19.95;;
35907;SDS011;22003;50.320;8.054;2023-04-21T07:00:02;43.80;;;20.60;;
35907;SDS011;22003;50.320;8.054;2023-04-21T07:02:29;46.83;;;19.85;;
35907;SDS011;22003;50.320;8.054;2023-04-21T07:04:55;46.33;;;19.77;;
35907;SDS011;22003;50.320;8.054;2023-04-21T07:07:20;55.25;;;20.13;;
35907;SDS011;22003;50.320;8.054;2023-04-21T07:09:45;43.88;;;18.88;;
35907;SDS011;22003;50.320;8.054;2023-04-21T07:12:12;40.50;;;18.27;;
35907;SDS011;22003;50.320;8.054;2023-04-21T07:14:37;37.17;;;17.63;;
35907;SDS011;22003;50.320;8.054;2023-04-21T07:17:02;42.33;;;19.77;;
35907;SDS011;22003;50.320;8.054;2023-04-21T07:19:28;39.60;;;19.65;;
35907;SDS011;22003;50.320;8.054;2023-04-21T07:21:53;39.28;;;19.75;;
35907;SDS011;22003;50.320;8.054;2023-04-21T07:24:18;36.83;;;17.75;;
35907;SDS011;22003;50.320;8.054;2023-04-21T07:26:43;38.13;;;18.65;;
35907;SDS011;22003;50.320;8.054;2023-04-21T07:29:09;39.40;;;18.48;;
35907;SDS011;22003;50.320;8.054;2023-04-21T07:31:34;36.83;;;17.70;;
35907;SDS011;22003;50.320;8.054;2023-04-21T07:33:59;34.05;;;17.85;;
35907;SDS011;22003;50.320;8.054;2023-04-21T07:36:24;41.55;;;18.17;;
35907;SDS011;22003;50.320;8.054;2023-04-21T07:38:52;40.80;;;18.20;;
35907;SDS011;22003;50.320;8.054;2023-04-21T07:41:17;37.80;;;17.77;;
35907;SDS011;22003;50.320;8.054;2023-04-21T07:43:43;37.53;;;18.45;;
35907;SDS011;22003;50.320;8.054;2023-04-21T07:46:08;36.60;;;17.45;;
35907;SDS011;22003;50.320;8.054;2023-04-21T07:48:34;39.03;;;16.65;;
35907;SDS011;22003;50.320;8.054;2023-04-21T07:50:59;36.05;;;16.35;;
35907;SDS011;22003;50.320;8.054;2023-04-21T07:53:25;35.15;;;18.30;;
35907;SDS011;22003;50.320;8.054;2023-04-21T07:55:51;37.13;;;17.05;;
35907;SDS011;22003;50.320;8.054;2023-04-21T07:58:16;40.63;;;18.50;;
35907;SDS011;22003;50.320;8.054;2023-04-21T08:00:41;38.42;;;17.33;;
35907;SDS011;22003;50.320;8.054;2023-04-21T08:03:07;37.65;;;18.02;;
35907;SDS011;22003;50.320;8.054;2023-04-21T08:05:32;37.58;;;17.60;;
35907;SDS011;22003;50.320;8.054;2023-04-21T08:07:57;37.65;;;18.73;;
35907;SDS011;22003;50.320;8.054;2023-04-21T08:10:23;40.25;;;18.67;;
35907;SDS011;22003;50.320;8.054;2023-04-21T08:12:48;37.58;;;18.58;;
35907;SDS011;22003;50.320;8.054;2023-04-21T08:15:14;37.67;;;17.25;;
35907;SDS011;22003;50.320;8.054;2023-04-21T08:17:40;34.35;;;17.85;;
35907;SDS011;22003;50.320;8.054;2023-04-21T08:20:05;32.05;;;16.25;;
35907;SDS011;22003;50.320;8.054;2023-04-21T08:22:31;32.63;;;16.77;;
35907;SDS011;22003;50.320;8.054;2023-04-21T08:24:57;33.17;;;16.80;;
35907;SDS011;22003;50.320;8.054;2023-04-21T08:27:22;31.80;;;16.35;;
35907;SDS011;22003;50.320;8.054;2023-04-21T08:29:48;30.80;;;16.30;;
35907;SDS011;22003;50.320;8.054;2023-04-21T08:32:14;28.30;;;15.73;;
35907;SDS011;22003;50.320;8.054;2023-04-21T08:34:39;29.13;;;14.60;;
35907;SDS011;22003;50.320;8.054;2023-04-21T08:37:05;29.52;;;15.55;;
35907;SDS011;22003;50.320;8.054;2023-04-21T08:39:30;27.13;;;15.00;;
35907;SDS011;22003;50.320;8.054;2023-04-21T08:41:56;30.17;;;15.93;;
35907;SDS011;22003;50.320;8.054;2023-04-21T08:44:22;27.45;;;14.98;;
35907;SDS011;22003;50.320;8.054;2023-04-21T08:46:48;26.95;;;15.32;;
35907;SDS011;22003;50.320;8.054;2023-04-21T08:49:15;33.85;;;16.23;;
35907;SDS011;22003;50.320;8.054;2023-04-21T08:51:43;27.08;;;16.02;;
35907;SDS011;22003;50.320;8.054;2023-04-21T08:54:09;28.20;;;15.18;;
35907;SDS011;22003;50.320;8.054;2023-04-21T08:56:35;26.85;;;15.13;;
35907;SDS011;22003;50.320;8.054;2023-04-21T08:59:00;31.30;;;16.83;;
35907;SDS011;22003;50.320;8.054;2023-04-21T09:01:25;25.38;;;14.60;;
35907;SDS011;22003;50.320;8.054;2023-04-21T09:03:51;28.05;;;15.70;;
35907;SDS011;22003;50.320;8.054;2023-04-21T09:06:16;28.75;;;16.00;;
35907;SDS011;22003;50.320;8.054;2023-04-21T09:08:42;28.38;;;15.50;;
35907;SDS011;22003;50.320;8.054;2023-04-21T09:11:12;28.50;;;15.23;;
35907;SDS011;22003;50.320;8.054;2023-04-21T09:13:38;29.58;;;16.05;;
35907;SDS011;22003;50.320;8.054;2023-04-21T09:16:04;33.33;;;17.40;;
35907;SDS011;22003;50.320;8.054;2023-04-21T09:18:40;30.67;;;16.98;;
35907;SDS011;22003;50.320;8.054;2023-04-21T09:21:09;31.63;;;16.85;;
35907;SDS011;22003;50.320;8.054;2023-04-21T09:23:48;29.00;;;16.05;;
35907;SDS011;22003;50.320;8.054;2023-04-21T09:26:15;32.80;;;15.68;;
35907;SDS011;22003;50.320;8.054;2023-04-21T09:28:42;29.70;;;15.38;;
35907;SDS011;22003;50.320;8.054;2023-04-21T09:31:11;26.42;;;15.32;;
35907;SDS011;22003;50.320;8.054;2023-04-21T09:33:48;32.85;;;16.75;;
35907;SDS011;22003;50.320;8.054;2023-04-21T09:36:18;28.67;;;16.80;;
35907;SDS011;22003;50.320;8.054;2023-04-21T09:38:57;30.95;;;17.02;;
35907;SDS011;22003;50.320;8.054;2023-04-21T09:41:25;29.60;;;16.63;;
35907;SDS011;22003;50.320;8.054;2023-04-21T09:43:51;32.75;;;16.35;;
35907;SDS011;22003;50.320;8.054;2023-04-21T09:46:16;28.02;;;17.38;;
35907;SDS011;22003;50.320;8.054;2023-04-21T09:48:44;33.03;;;17.45;;
35907;SDS011;22003;50.320;8.054;2023-04-21T09:51:10;29.08;;;16.88;;
35907;SDS011;22003;50.320;8.054;2023-04-21T09:53:39;31.33;;;16.90;;
35907;SDS011;22003;50.320;8.054;2023-04-21T09:56:14;29.70;;;16.70;;
35907;SDS011;22003;50.320;8.054;2023-04-21T09:58:51;29.10;;;17.23;;
35907;SDS011;22003;50.320;8.054;2023-04-21T10:01:18;29.05;;;17.35;;
35907;SDS011;22003;50.320;8.054;2023-04-21T10:03:44;35.63;;;18.58;;
35907;SDS011;22003;50.320;8.054;2023-04-21T10:06:14;32.28;;;17.80;;
35907;SDS011;22003;50.320;8.054;2023-04-21T10:08:39;32.35;;;17.15;;
35907;SDS011;22003;50.320;8.054;2023-04-21T10:11:05;30.80;;;18.33;;
35907;SDS011;22003;50.320;8.054;2023-04-21T10:13:31;31.52;;;17.05;;
35907;SDS011;22003;50.320;8.054;2023-04-21T10:16:04;31.27;;;18.50;;
35907;SDS011;22003;50.320;8.054;2023-04-21T10:18:34;31.50;;;18.75;;
35907;SDS011;22003;50.320;8.054;2023-04-21T10:21:01;31.67;;;18.90;;
35907;SDS011;22003;50.320;8.054;2023-04-21T10:26:12;34.08;;;19.88;;
35907;SDS011;22003;50.320;8.054;2023-04-21T10:28:48;29.88;;;17.83;;
35907;SDS011;22003;50.320;8.054;2023-04-21T10:31:29;33.50;;;19.80;;
35907;SDS011;22003;50.320;8.054;2023-04-21T10:39:10;30.17;;;18.85;;
35907;SDS011;22003;50.320;8.054;2023-04-21T10:41:49;34.60;;;20.17;;
35907;SDS011;22003;50.320;8.054;2023-04-21T10:44:15;29.40;;;17.88;;
35907;SDS011;22003;50.320;8.054;2023-04-21T10:46:50;30.13;;;17.67;;
35907;SDS011;22003;50.320;8.054;2023-04-21T10:54:28;28.67;;;18.52;;
35907;SDS011;22003;50.320;8.054;2023-04-21T10:56:56;31.15;;;19.08;;
35907;SDS011;22003;50.320;8.054;2023-04-21T10:59:22;29.92;;;17.20;;
35907;SDS011;22003;50.320;8.054;2023-04-21T11:01:48;28.85;;;16.25;;
35907;SDS011;22003;50.320;8.054;2023-04-21T11:04:17;26.92;;;16.63;;
35907;SDS011;22003;50.320;8.054;2023-04-21T11:06:51;27.48;;;17.77;;
35907;SDS011;22003;50.320;8.054;2023-04-21T11:09:34;26.35;;;16.40;;
35907;SDS011;22003;50.320;8.054;2023-04-21T11:12:04;26.55;;;16.95;;
35907;SDS011;22003;50.320;8.054;2023-04-21T11:14:34;31.33;;;16.75;;
35907;SDS011;22003;50.320;8.054;2023-04-21T11:17:01;30.88;;;18.60;;
35907;SDS011;22003;50.320;8.054;2023-04-21T11:19:27;24.65;;;15.18;;
35907;SDS011;22003;50.320;8.054;2023-04-21T11:21:55;28.35;;;17.45;;
35907;SDS011;22003;50.320;8.054;2023-04-21T11:24:21;29.20;;;16.58;;
35907;SDS011;22003;50.320;8.054;2023-04-21T11:26:46;30.90;;;17.63;;
35907;SDS011;22003;50.320;8.054;2023-04-21T11:29:12;27.27;;;16.90;;
35907;SDS011;22003;50.320;8.054;2023-04-21T11:31:39;22.00;;;13.95;;
35907;SDS011;22003;50.320;8.054;2023-04-21T11:34:06;25.42;;;14.93;;
35907;SDS011;22003;50.320;8.054;2023-04-21T11:36:32;24.38;;;15.18;;
35907;SDS011;22003;50.320;8.054;2023-04-21T11:39:09;26.40;;;15.10;;
35907;SDS011;22003;50.320;8.054;2023-04-21T11:41:37;28.33;;;17.05;;
35907;SDS011;22003;50.320;8.054;2023-04-21T11:44:05;27.48;;;16.33;;
35907;SDS011;22003;50.320;8.054;2023-04-21T11:46:31;23.00;;;14.23;;
35907;SDS011;22003;50.320;8.054;2023-04-21T11:49:00;23.05;;;14.82;;
35907;SDS011;22003;50.320;8.054;2023-04-21T11:51:31;21.02;;;14.70;;
35907;SDS011;22003;50.320;8.054;2023-04-21T11:53:57;25.55;;;14.85;;
35907;SDS011;22003;50.320;8.054;2023-04-21T11:56:23;26.13;;;15.20;;
35907;SDS011;22003;50.320;8.054;2023-04-21T11:58:49;24.85;;;14.95;;
35907;SDS011;22003;50.320;8.054;2023-04-21T12:01:16;22.88;;;14.10;;
35907;SDS011;22003;50.320;8.054;2023-04-21T12:03:49;24.73;;;14.00;;
35907;SDS011;22003;50.320;8.054;2023-04-21T12:06:25;24.92;;;15.52;;
35907;SDS011;22003;50.320;8.054;2023-04-21T12:08:59;26.15;;;14.77;;
35907;SDS011;22003;50.320;8.054;2023-04-21T12:11:26;22.67;;;13.88;;
35907;SDS011;22003;50.320;8.054;2023-04-21T12:13:56;22.20;;;13.77;;
35907;SDS011;22003;50.320;8.054;2023-04-21T12:16:23;22.17;;;13.80;;
35907;SDS011;22003;50.320;8.054;2023-04-21T12:18:51;18.05;;;11.90;;
35907;SDS011;22003;50.320;8.054;2023-04-21T12:21:16;22.23;;;12.43;;
35907;SDS011;22003;50.320;8.054;2023-04-21T12:23:41;21.20;;;12.27;;
35907;SDS011;22003;50.320;8.054;2023-04-21T12:26:08;21.07;;;13.17;;
35907;SDS011;22003;50.320;8.054;2023-04-21T12:28:34;21.63;;;12.65;;
35907;SDS011;22003;50.320;8.054;2023-04-21T12:31:00;17.98;;;12.10;;
35907;SDS011;22003;50.320;8.054;2023-04-21T12:33:25;20.73;;;12.27;;
35907;SDS011;22003;50.320;8.054;2023-04-21T12:35:50;18.27;;;11.65;;
35907;SDS011;22003;50.320;8.054;2023-04-21T12:38:16;20.85;;;11.80;;
35907;SDS011;22003;50.320;8.054;2023-04-21T12:40:41;17.77;;;11.95;;
35907;SDS011;22003;50.320;8.054;2023-04-21T12:43:06;17.08;;;10.90;;
35907;SDS011;22003;50.320;8.054;2023-04-21T12:45:31;16.98;;;10.93;;
35907;SDS011;22003;50.320;8.054;2023-04-21T12:47:57;18.75;;;11.50;;
35907;SDS011;22003;50.320;8.054;2023-04-21T12:50:22;18.08;;;11.50;;
35907;SDS011;22003;50.320;8.054;2023-04-21T12:52:47;19.80;;;11.95;;
35907;SDS011;22003;50.320;8.054;2023-04-21T12:57:40;15.73;;;10.67;;
35907;SDS011;22003;50.320;8.054;2023-04-21T13:00:05;15.00;;;10.15;;
35907;SDS011;22003;50.320;8.054;2023-04-21T13:02:32;19.02;;;11.30;;
35907;SDS011;22003;50.320;8.054;2023-04-21T13:05:00;16.52;;;10.80;;
35907;SDS011;22003;50.320;8.054;2023-04-21T13:07:26;16.58;;;10.45;;
35907;SDS011;22003;50.320;8.054;2023-04-21T13:09:55;16.80;;;10.93;;
35907;SDS011;22003;50.320;8.054;2023-04-21T13:12:20;13.45;;;9.70;;
35907;SDS011;22003;50.320;8.054;2023-04-21T13:14:45;18.35;;;11.07;;
35907;SDS011;22003;50.320;8.054;2023-04-21T13:17:11;11.65;;;8.25;;
35907;SDS011;22003;50.320;8.054;2023-04-21T13:19:37;15.82;;;10.23;;
35907;SDS011;22003;50.320;8.054;2023-04-21T13:22:02;13.57;;;9.63;;
35907;SDS011;22003;50.320;8.054;2023-04-21T13:24:28;14.00;;;9.60;;
35907;SDS011;22003;50.320;8.054;2023-04-21T13:26:53;16.40;;;9.82;;
35907;SDS011;22003;50.320;8.054;2023-04-21T13:29:18;17.88;;;9.98;;
35907;SDS011;22003;50.320;8.054;2023-04-21T13:31:44;13.68;;;8.82;;
35907;SDS011;22003;50.320;8.054;2023-04-21T13:34:09;14.98;;;9.50;;
35907;SDS011;22003;50.320;8.054;2023-04-21T13:36:34;14.95;;;9.35;;
35907;SDS011;22003;50.320;8.054;2023-04-21T13:39:00;14.65;;;9.55;;
35907;SDS011;22003;50.320;8.054;2023-04-21T13:41:25;15.15;;;10.20;;
35907;SDS011;22003;50.320;8.054;2023-04-21T13:43:51;16.55;;;10.60;;
35907;SDS011;22003;50.320;8.054;2023-04-21T13:46:16;14.45;;;9.43;;
35907;SDS011;22003;50.320;8.054;2023-04-21T13:48:41;11.70;;;8.20;;
35907;SDS011;22003;50.320;8.054;2023-04-21T13:51:08;14.75;;;8.65;;
35907;SDS011;22003;50.320;8.054;2023-04-21T13:53:34;11.80;;;8.05;;
35907;SDS011;22003;50.320;8.054;2023-04-21T13:56:00;10.13;;;7.68;;
35907;SDS011;22003;50.320;8.054;2023-04-21T13:58:25;12.65;;;7.97;;
35907;SDS011;22003;50.320;8.054;2023-04-21T14:00:50;10.35;;;7.75;;
35907;SDS011;22003;50.320;8.054;2023-04-21T14:03:15;11.93;;;8.35;;
35907;SDS011;22003;50.320;8.054;2023-04-21T14:05:41;12.63;;;8.50;;
35907;SDS011;22003;50.320;8.054;2023-04-21T14:08:06;11.43;;;8.40;;
35907;SDS011;22003;50.320;8.054;2023-04-21T14:10:32;12.25;;;9.07;;
35907;SDS011;22003;50.320;8.054;2023-04-21T14:12:57;12.02;;;8.52;;
35907;SDS011;22003;50.320;8.054;2023-04-21T14:15:23;12.07;;;9.18;;
35907;SDS011;22003;50.320;8.054;2023-04-21T14:17:50;13.95;;;8.88;;
35907;SDS011;22003;50.320;8.054;2023-04-21T14:20:16;11.25;;;8.50;;
35907;SDS011;22003;50.320;8.054;2023-04-21T14:22:41;13.55;;;8.93;;
35907;SDS011;22003;50.320;8.054;2023-04-21T14:25:07;11.23;;;8.57;;
35907;SDS011;22003;50.320;8.054;2023-04-21T14:27:32;10.90;;;7.90;;
35907;SDS011;22003;50.320;8.054;2023-04-21T14:29:58;10.57;;;7.82;;
35907;SDS011;22003;50.320;8.054;2023-04-21T14:32:24;11.75;;;8.63;;
35907;SDS011;22003;50.320;8.054;2023-04-21T14:34:49;10.85;;;7.97;;
35907;SDS011;22003;50.320;8.054;2023-04-21T14:37:17;11.68;;;8.20;;
35907;SDS011;22003;50.320;8.054;2023-04-21T14:39:43;9.85;;;7.65;;
35907;SDS011;22003;50.320;8.054;2023-04-21T14:42:08;11.65;;;7.78;;
35907;SDS011;22003;50.320;8.054;2023-04-21T14:44:33;7.13;;;6.13;;
35907;SDS011;22003;50.320;8.054;2023-04-21T14:46:59;9.68;;;6.68;;
35907;SDS011;22003;50.320;8.054;2023-04-21T14:49:24;8.82;;;7.15;;
35907;SDS011;22003;50.320;8.054;2023-04-21T14:51:50;11.05;;;6.75;;
35907;SDS011;22003;50.320;8.054;2023-04-21T14:54:15;10.15;;;7.05;;
35907;SDS011;22003;50.320;8.054;2023-04-21T14:56:41;13.05;;;7.40;;
35907;SDS011;22003;50.320;8.054;2023-04-21T14:59:06;10.10;;;6.50;;
35907;SDS011;22003;50.320;8.054;2023-04-21T15:01:31;9.27;;;6.55;;
35907;SDS011;22003;50.320;8.054;2023-04-21T15:03:57;11.63;;;7.70;;
35907;SDS011;22003;50.320;8.054;2023-04-21T15:06:23;9.48;;;6.82;;
35907;SDS011;22003;50.320;8.054;2023-04-21T15:08:49;9.70;;;6.78;;
35907;SDS011;22003;50.320;8.054;2023-04-21T15:11:14;11.00;;;7.15;;
35907;SDS011;22003;50.320;8.054;2023-04-21T15:13:39;10.90;;;7.95;;
35907;SDS011;22003;50.320;8.054;2023-04-21T15:16:05;10.68;;;7.28;;
35907;SDS011;22003;50.320;8.054;2023-04-21T15:18:30;10.02;;;6.97;;
35907;SDS011;22003;50.320;8.054;2023-04-21T15:20:55;11.82;;;7.13;;
35907;SDS011;22003;50.320;8.054;2023-04-21T15:23:21;11.00;;;6.70;;
35907;SDS011;22003;50.320;8.054;2023-04-21T15:25:46;9.23;;;6.60;;
35907;SDS011;22003;50.320;8.054;2023-04-21T15:28:11;10.05;;;6.45;;
35907;SDS011;22003;50.320;8.054;2023-04-21T15:30:37;11.32;;;6.60;;
35907;SDS011;22003;50.320;8.054;2023-04-21T15:33:02;9.93;;;6.57;;
35907;SDS011;22003;50.320;8.054;2023-04-21T15:35:28;10.77;;;6.63;;
35907;SDS011;22003;50.320;8.054;2023-04-21T15:37:53;8.07;;;6.35;;
35907;SDS011;22003;50.320;8.054;2023-04-21T15:40:18;9.13;;;6.50;;
35907;SDS011;22003;50.320;8.054;2023-04-21T15:42:43;9.32;;;6.97;;
35907;SDS011;22003;50.320;8.054;2023-04-21T15:45:09;7.45;;;6.00;;
35907;SDS011;22003;50.320;8.054;2023-04-21T15:47:34;9.15;;;7.00;;
35907;SDS011;22003;50.320;8.054;2023-04-21T15:50:00;9.32;;;7.00;;
35907;SDS011;22003;50.320;8.054;2023-04-21T15:52:25;8.63;;;6.35;;
35907;SDS011;22003;50.320;8.054;2023-04-21T15:54:52;9.23;;;6.53;;
35907;SDS011;22003;50.320;8.054;2023-04-21T15:57:18;9.45;;;5.85;;
35907;SDS011;22003;50.320;8.054;2023-04-21T15:59:43;9.90;;;6.28;;
35907;SDS011;22003;50.320;8.054;2023-04-21T16:02:08;13.32;;;5.65;;
35907;SDS011;22003;50.320;8.054;2023-04-21T16:04:34;7.53;;;5.95;;
35907;SDS011;22003;50.320;8.054;2023-04-21T16:06:59;9.18;;;6.25;;
35907;SDS011;22003;50.320;8.054;2023-04-21T16:09:24;7.00;;;5.18;;
35907;SDS011;22003;50.320;8.054;2023-04-21T16:11:50;9.43;;;6.10;;
35907;SDS011;22003;50.320;8.054;2023-04-21T16:14:16;6.50;;;5.20;;
35907;SDS011;22003;50.320;8.054;2023-04-21T16:16:42;8.88;;;6.10;;
35907;SDS011;22003;50.320;8.054;2023-04-21T16:19:08;10.73;;;6.40;;
35907;SDS011;22003;50.320;8.054;2023-04-21T16:21:33;10.07;;;6.38;;
35907;SDS011;22003;50.320;8.054;2023-04-21T16:23:58;8.50;;;6.50;;
35907;SDS011;22003;50.320;8.054;2023-04-21T16:26:24;10.27;;;6.30;;
35907;SDS011;22003;50.320;8.054;2023-04-21T16:28:49;7.07;;;4.97;;
35907;SDS011;22003;50.320;8.054;2023-04-21T16:31:18;8.00;;;5.63;;
35907;SDS011;22003;50.320;8.054;2023-04-21T16:33:43;12.68;;;5.72;;
35907;SDS011;22003;50.320;8.054;2023-04-21T16:36:08;8.88;;;5.28;;
35907;SDS011;22003;50.320;8.054;2023-04-21T16:38:33;10.25;;;5.53;;
35907;SDS011;22003;50.320;8.054;2023-04-21T16:40:59;7.05;;;5.50;;
35907;SDS011;22003;50.320;8.054;2023-04-21T16:43:24;6.80;;;5.57;;
35907;SDS011;22003;50.320;8.054;2023-04-21T16:45:49;6.95;;;5.25;;
35907;SDS011;22003;50.320;8.054;2023-04-21T16:48:14;8.27;;;6.28;;
35907;SDS011;22003;50.320;8.054;2023-04-21T16:50:40;21.00;;;8.68;;
35907;SDS011;22003;50.320;8.054;2023-04-21T16:53:05;6.80;;;5.32;;
35907;SDS011;22003;50.320;8.054;2023-04-21T16:55:31;7.45;;;5.55;;
35907;SDS011;22003;50.320;8.054;2023-04-21T16:57:56;8.10;;;5.63;;
35907;SDS011;22003;50.320;8.054;2023-04-21T17:00:23;7.60;;;5.43;;
35907;SDS011;22003;50.320;8.054;2023-04-21T17:02:48;8.63;;;6.93;;
35907;SDS011;22003;50.320;8.054;2023-04-21T17:05:14;10.57;;;6.22;;
35907;SDS011;22003;50.320;8.054;2023-04-21T17:07:40;8.15;;;6.20;;
35907;SDS011;22003;50.320;8.054;2023-04-21T17:10:06;7.15;;;5.47;;
35907;SDS011;22003;50.320;8.054;2023-04-21T17:12:31;6.95;;;5.88;;
35907;SDS011;22003;50.320;8.054;2023-04-21T17:14:57;8.60;;;5.90;;
35907;SDS011;22003;50.320;8.054;2023-04-21T17:17:22;9.90;;;6.40;;
35907;SDS011;22003;50.320;8.054;2023-04-21T17:19:48;17.23;;;7.68;;
35907;SDS011;22003;50.320;8.054;2023-04-21T17:22:13;9.60;;;6.07;;
35907;SDS011;22003;50.320;8.054;2023-04-21T17:24:38;10.45;;;6.32;;
35907;SDS011;22003;50.320;8.054;2023-04-21T17:27:04;10.10;;;6.13;;
35907;SDS011;22003;50.320;8.054;2023-04-21T17:29:29;8.60;;;5.70;;
35907;SDS011;22003;50.320;8.054;2023-04-21T17:31:55;8.10;;;5.53;;
35907;SDS011;22003;50.320;8.054;2023-04-21T17:34:20;7.40;;;5.68;;
35907;SDS011;22003;50.320;8.054;2023-04-21T17:36:45;12.23;;;7.78;;
35907;SDS011;22003;50.320;8.054;2023-04-21T17:39:10;10.45;;;6.63;;
35907;SDS011;22003;50.320;8.054;2023-04-21T17:41:36;8.43;;;6.32;;
35907;SDS011;22003;50.320;8.054;2023-04-21T17:44:01;9.18;;;6.55;;
35907;SDS011;22003;50.320;8.054;2023-04-21T17:46:27;9.25;;;6.28;;
35907;SDS011;22003;50.320;8.054;2023-04-21T17:48:52;8.15;;;6.32;;
35907;SDS011;22003;50.320;8.054;2023-04-21T17:51:18;10.25;;;6.00;;
35907;SDS011;22003;50.320;8.054;2023-04-21T17:53:43;8.50;;;5.95;;
35907;SDS011;22003;50.320;8.054;2023-04-21T17:56:09;8.40;;;6.25;;
35907;SDS011;22003;50.320;8.054;2023-04-21T17:58:37;12.18;;;6.88;;
35907;SDS011;22003;50.320;8.054;2023-04-21T18:01:04;14.85;;;8.55;;
35907;SDS011;22003;50.320;8.054;2023-04-21T18:03:29;11.43;;;7.10;;
35907;SDS011;22003;50.320;8.054;2023-04-21T18:05:54;11.57;;;7.88;;
35907;SDS011;22003;50.320;8.054;2023-04-21T18:08:20;14.05;;;7.85;;
35907;SDS011;22003;50.320;8.054;2023-04-21T18:10:45;12.80;;;8.00;;
35907;SDS011;22003;50.320;8.054;2023-04-21T18:13:11;12.68;;;8.57;;
35907;SDS011;22003;50.320;8.054;2023-04-21T18:15:36;9.63;;;7.05;;
35907;SDS011;22003;50.320;8.054;2023-04-21T18:18:02;8.93;;;3.40;;
35907;SDS011;22003;50.320;8.054;2023-04-21T18:20:27;4.35;;;2.83;;
35907;SDS011;22003;50.320;8.054;2023-04-21T18:22:52;10.25;;;6.78;;
35907;SDS011;22003;50.320;8.054;2023-04-21T18:25:18;9.35;;;4.15;;
35907;SDS011;22003;50.320;8.054;2023-04-21T18:27:43;6.65;;;2.85;;
35907;SDS011;22003;50.320;8.054;2023-04-21T18:30:08;8.32;;;2.63;;
35907;SDS011;22003;50.320;8.054;2023-04-21T18:32:34;6.00;;;3.28;;
35907;SDS011;22003;50.320;8.054;2023-04-21T18:35:00;6.15;;;3.03;;
35907;SDS011;22003;50.320;8.054;2023-04-21T18:37:26;7.57;;;2.58;;
35907;SDS011;22003;50.320;8.054;2023-04-21T18:39:51;2.72;;;2.40;;